Time;durP1;ratioP1;P1;durP2;ratioP2;P2;SDS_P1;SDS_P2;PMS_P1;PMS_P2;Temp;Humidity;BMP_temperature;BMP_pressure;BME280_temperature;BME280_humidity;BME280_pressure;Samples;Min_cycle;Max_cycle;Signal;HPM_P1;HPM_P2
2023/03/28 00:00:27;;;;;;;11.15;6.05;;;;;;;4.19;74.26;98934.41;5032628;28;20051;-51
2023/03/28 00:02:53;;;;;;;9.73;6.43;;;;;;;4.14;74.73;98932.91;5014655;28;20069;-51
2023/03/28 00:05:18;;;;;;;9.60;5.53;;;;;;;4.09;74.09;98923.59;5032656;28;20084;-56
2023/03/28 00:07:44;;;;;;;7.18;4.93;;;;;;;4.05;74.56;98928.22;5033808;28;20048;-50
2023/03/28 00:10:09;;;;;;;9.57;5.40;;;;;;;4.01;74.90;98929.41;5033151;28;20033;-55
2023/03/28 00:12:35;;;;;;;28.67;14.60;;;;;;;3.97;74.75;98931.38;5017252;28;20445;-53
2023/03/28 00:15:03;;;;;;;6.80;4.93;;;;;;;3.96;74.63;98935.00;5014254;28;20026;-52
2023/03/28 00:17:29;;;;;;;25.45;13.70;;;;;;;3.91;75.55;98937.13;5013738;28;20396;-48
2023/03/28 00:19:55;;;;;;;11.75;7.38;;;;;;;3.92;75.09;98943.28;5013593;28;20346;-55
2023/03/28 00:22:21;;;;;;;5.88;4.70;;;;;;;3.86;75.44;98947.16;5030484;28;20045;-49
2023/03/28 00:24:47;;;;;;;11.13;6.25;;;;;;;3.77;75.07;98940.69;5033597;28;20065;-50
2023/03/28 00:27:14;;;;;;;20.92;10.73;;;;;;;3.78;75.15;98942.38;5033281;28;20130;-53
2023/03/28 00:29:40;;;;;;;44.33;21.50;;;;;;;3.78;76.16;98946.84;5032387;28;20199;-52
2023/03/28 00:32:06;;;;;;;15.23;8.38;;;;;;;3.78;75.92;98944.19;5018154;28;20026;-54
2023/03/28 00:34:31;;;;;;;23.60;11.88;;;;;;;3.76;76.35;98946.09;5013714;28;20041;-51
2023/03/28 00:36:57;;;;;;;47.00;24.98;;;;;;;3.76;76.07;98951.41;5013411;28;20421;-50
2023/03/28 00:39:23;;;;;;;27.85;13.70;;;;;;;3.73;76.02;98955.09;5013439;28;20392;-52
2023/03/28 00:41:48;;;;;;;26.33;13.50;;;;;;;3.71;76.27;98963.13;5024298;28;20044;-49
2023/03/28 00:44:53;;;;;;;19.02;10.27;;;;;;;3.79;75.99;98967.91;5031753;28;20111;-51
2023/03/28 00:47:42;;;;;;;13.40;7.15;;;;;;;3.76;75.81;98976.06;5032876;28;20345;-48
2023/03/28 00:50:26;;;;;;;10.90;5.57;;;;;;;3.75;75.66;98974.38;5033117;28;20178;-47
2023/03/28 00:52:57;;;;;;;13.20;8.00;;;;;;;3.69;75.75;98974.78;5012194;28;20034;-51
2023/03/28 00:55:46;;;;;;;17.55;9.73;;;;;;;3.71;75.82;98975.53;5012968;28;20033;-54
2023/03/28 00:58:25;;;;;;;16.60;8.82;;;;;;;3.59;75.70;98970.06;5022562;28;20142;-48
2023/03/28 01:00:51;;;;;;;29.75;15.20;;;;;;;3.60;76.37;98978.88;5028246;28;20030;-52
2023/03/28 01:03:18;;;;;;;33.70;18.35;;;;;;;3.58;76.61;98980.78;5013097;28;20480;-49
2023/03/28 01:05:46;;;;;;;38.47;19.15;;;;;;;3.58;76.60;98986.91;5013244;28;20433;-55
2023/03/28 01:08:20;;;;;;;15.27;7.10;;;;;;;3.59;76.31;98978.00;5012683;28;20063;-51
2023/03/28 01:10:47;;;;;;;24.27;12.73;;;;;;;3.54;76.14;98988.06;5015510;28;20117;-49
2023/03/28 01:13:16;;;;;;;24.08;13.50;;;;;;;3.55;76.80;98987.09;5032651;28;20440;-52
2023/03/28 01:15:43;;;;;;;30.55;16.80;;;;;;;3.29;76.11;98955.25;5031660;28;20030;-50
2023/03/28 01:18:10;;;;;;;13.07;7.13;;;;;;;3.53;76.71;98989.00;5031877;28;20036;-53
2023/03/28 01:20:55;;;;;;;9.00;6.07;;;;;;;3.58;76.57;98992.19;5017122;28;20117;-53
2023/03/28 01:23:58;;;;;;;17.48;9.18;;;;;;;3.56;76.24;98983.50;5030490;28;20116;-49
2023/03/28 01:26:47;;;;;;;12.30;6.60;;;;;;;3.49;76.54;98989.28;5032240;28;20441;-47
2023/03/28 01:29:20;;;;;;;8.65;6.03;;;;;;;3.45;76.89;98976.25;5032510;28;20087;-50
2023/03/28 01:32:10;;;;;;;14.90;8.55;;;;;;;3.49;76.68;98984.88;5021793;28;20046;-49
2023/03/28 01:35:05;;;;;;;12.60;6.22;;;;;;;3.44;76.26;98986.97;5013577;28;20369;-59
2023/03/28 01:37:41;;;;;;;14.07;6.95;;;;;;;3.39;76.23;98989.91;5027182;28;20033;-48
2023/03/28 01:40:22;;;;;;;;;;;;;;;3.61;76.71;98982.34;5032785;28;20049;-55
2023/03/28 01:43:09;;;;;;;14.38;7.00;;;;;;;3.46;76.22;98985.06;5013495;28;19992;-49
2023/03/28 01:45:44;;;;;;;14.00;8.25;;;;;;;3.40;76.59;98981.00;5012022;28;20046;-50
2023/03/28 01:48:36;;;;;;;10.93;5.60;;;;;;;3.34;76.45;98983.19;5012612;28;20033;-50
2023/03/28 01:51:19;;;;;;;34.55;16.90;;;;;;;3.38;76.43;98987.38;5027428;28;20422;-51
2023/03/28 01:53:57;;;;;;;30.88;14.20;;;;;;;3.20;76.71;98958.50;5032495;28;20072;-51
2023/03/28 01:56:36;;;;;;;19.17;10.13;;;;;;;3.30;76.92;98982.56;5014923;28;20037;-54
2023/03/28 01:59:07;;;;;;;16.23;9.05;;;;;;;3.27;76.52;98988.06;5023591;28;20029;-50
2023/03/28 02:02:05;;;;;;;18.70;10.13;;;;;;;3.33;77.37;98994.72;5012066;28;20471;-54
2023/03/28 02:04:32;;;;;;;11.98;6.93;;;;;;;3.28;77.29;98993.22;5011672;28;20409;-50
2023/03/28 02:06:59;;;;;;;13.00;6.85;;;;;;;3.26;77.05;99000.41;5012275;28;20368;-49
2023/03/28 02:09:26;;;;;;;34.85;17.02;;;;;;;3.26;76.98;98997.78;5019450;28;20487;-50
2023/03/28 02:12:00;;;;;;;17.90;10.18;;;;;;;3.25;77.16;98990.78;5032373;28;20061;-53
2023/03/28 02:14:33;;;;;;;13.18;7.72;;;;;;;3.27;76.94;98999.47;5030846;28;20112;-49
2023/03/28 02:17:20;;;;;;;23.15;11.27;;;;;;;3.25;76.95;99006.66;5011348;28;20345;-52
2023/03/28 02:19:57;;;;;;;11.73;6.70;;;;;;;3.27;76.86;99017.16;5023143;28;20460;-61
2023/03/28 02:22:39;;;;;;;23.98;12.52;;;;;;;3.27;76.94;99012.69;5013931;28;20042;-58
2023/03/28 02:25:05;;;;;;;14.80;8.88;;;;;;;3.00;76.63;98978.25;5028272;28;20079;-61
2023/03/28 02:27:32;;;;;;;16.65;10.20;;;;;;;3.14;77.34;99017.91;5031880;28;20030;-55
2023/03/28 02:29:59;;;;;;;9.35;6.13;;;;;;;3.13;77.25;99020.66;5031869;28;20044;-57
2023/03/28 02:32:24;;;;;;;27.17;13.95;;;;;;;3.09;77.59;99004.13;5022175;28;20084;-57
2023/03/28 02:34:53;;;;;;;12.32;7.40;;;;;;;2.96;77.12;98997.91;4995462;28;20030;-59
2023/03/28 02:37:36;;;;;;;24.27;12.57;;;;;;;3.11;77.67;99027.84;5015331;28;20112;-57
2023/03/28 02:40:40;;;;;;;42.72;21.45;;;;;;;3.17;77.78;99030.13;5015461;28;20057;-57
2023/03/28 02:43:33;;;;;;;19.83;10.23;;;;;;;3.15;77.10;99034.66;5014958;28;20119;-58
2023/03/28 02:46:27;;;;;;;14.48;8.48;;;;;;;3.11;76.99;99022.53;5015519;28;20045;-58
2023/03/28 02:49:04;;;;;;;47.90;24.38;;;;;;;3.14;77.36;99032.97;5014247;28;20374;-60
2023/03/28 02:51:41;;;;;;;18.77;9.25;;;;;;;3.09;77.18;99035.00;5022013;28;20523;-53
2023/03/28 02:54:24;;;;;;;49.72;25.70;;;;;;;3.07;78.49;99032.47;5015803;28;20068;-56
2023/03/28 02:57:05;;;;;;;32.88;16.27;;;;;;;3.09;77.64;99037.66;5015230;28;20034;-58
2023/03/28 02:59:43;;;;;;;14.50;8.50;;;;;;;3.15;77.93;99045.22;5015235;28;20030;-54
2023/03/28 03:02:10;;;;;;;14.65;7.82;;;;;;;3.06;77.67;99043.16;5021685;28;20029;-57
2023/03/28 03:04:36;;;;;;;25.05;13.50;;;;;;;3.07;77.10;99048.34;5034677;28;20380;-51
2023/03/28 03:07:01;;;;;;;29.90;15.90;;;;;;;3.09;77.40;99051.75;5033589;28;20030;-58
2023/03/28 03:09:27;;;;;;;17.70;10.00;;;;;;;3.05;77.17;99041.44;5034240;28;20034;-54
2023/03/28 03:11:52;;;;;;;29.67;15.77;;;;;;;3.08;77.84;99051.84;5029804;28;20029;-59
2023/03/28 03:14:18;;;;;;;18.05;10.35;;;;;;;2.86;77.08;99018.78;5014594;28;20127;-57
2023/03/28 03:16:43;;;;;;;15.35;8.32;;;;;;;3.14;77.18;99070.00;5014978;28;20468;-54
2023/03/28 03:19:09;;;;;;;20.25;10.13;;;;;;;3.16;76.91;99068.94;5015332;28;20068;-56
2023/03/28 03:21:36;;;;;;;23.33;11.48;;;;;;;3.20;76.90;99076.66;5015371;28;20026;-58
2023/03/28 03:24:02;;;;;;;18.98;9.63;;;;;;;3.20;77.12;99080.19;5034753;28;20300;-56
2023/03/28 03:26:27;;;;;;;31.02;14.40;;;;;;;3.22;77.01;99078.28;5016975;28;20029;-57
2023/03/28 03:28:54;;;;;;;24.50;12.70;;;;;;;3.26;76.79;99077.13;5033782;28;20025;-56
2023/03/28 03:31:20;;;;;;;23.73;11.70;;;;;;;3.32;77.20;99083.00;5027844;28;20037;-53
2023/03/28 03:33:46;;;;;;;46.40;21.60;;;;;;;3.32;77.11;99075.91;5032635;28;20084;-56
2023/03/28 03:36:12;;;;;;;94.53;46.20;;;;;;;3.45;77.32;99070.69;5034874;28;20037;-56
2023/03/28 03:38:38;;;;;;;38.03;20.27;;;;;;;3.53;77.21;99076.34;5034105;28;20049;-56
2023/03/28 03:41:04;;;;;;;15.20;7.72;;;;;;;3.61;76.34;99080.28;5033725;28;20037;-57
2023/03/28 03:43:30;;;;;;;26.63;11.55;;;;;;;4.13;76.38;99079.59;5017519;28;20030;-56
2023/03/28 03:45:56;;;;;;;22.42;11.40;;;;;;;5.28;73.29;99086.88;5013316;28;20072;-55
2023/03/28 03:48:22;;;;;;;28.13;14.60;;;;;;;6.40;69.37;99077.03;5013940;28;20123;-55
2023/03/28 03:50:47;;;;;;;12.38;7.03;;;;;;;7.38;64.73;99079.34;5013982;28;20069;-54
2023/03/28 03:53:13;;;;;;;11.27;6.47;;;;;;;8.26;61.53;99068.75;5027078;28;20038;-56
2023/03/28 03:55:39;;;;;;;14.30;7.80;;;;;;;8.87;59.14;99083.25;5034182;28;20041;-59
2023/03/28 03:58:05;;;;;;;9.60;5.90;;;;;;;9.63;56.66;99085.53;5033831;28;20029;-56
2023/03/28 04:00:30;;;;;;;10.70;5.95;;;;;;;10.73;53.33;99087.34;5033363;28;20087;-56
2023/03/28 04:02:56;;;;;;;26.10;14.20;;;;;;;11.66;51.20;99093.84;5032728;28;20522;-58
2023/03/28 04:05:21;;;;;;;7.13;4.65;;;;;;;12.17;48.23;99059.34;5032752;28;20079;-53
2023/03/28 04:07:47;;;;;;;11.70;6.80;;;;;;;12.97;46.66;99071.91;5032604;28;20033;-54
2023/03/28 04:10:12;;;;;;;8.43;5.10;;;;;;;13.76;44.58;99074.50;5033914;28;20034;-55
2023/03/28 04:12:39;;;;;;;10.23;5.32;;;;;;;14.55;42.79;99073.28;5025389;28;20464;-54
2023/03/28 04:15:05;;;;;;;15.15;5.90;;;;;;;15.32;41.10;99058.56;5033609;28;20030;-58
2023/03/28 04:17:33;;;;;;;5.43;4.05;;;;;;;16.31;38.75;99088.78;5032175;28;20029;-57
2023/03/28 04:20:00;;;;;;;8.45;4.72;;;;;;;17.17;37.24;99079.66;5033309;28;20026;-56
2023/03/28 04:22:29;;;;;;;6.60;4.45;;;;;;;18.07;35.79;99079.56;5027093;28;20137;-54
2023/03/28 04:24:55;;;;;;;7.78;4.75;;;;;;;18.90;33.70;99059.28;5013226;28;20123;-54
2023/03/28 04:27:25;;;;;;;5.93;4.43;;;;;;;19.55;32.29;99064.53;5013420;28;20511;-57
2023/03/28 04:29:52;;;;;;;8.00;4.68;;;;;;;20.42;31.33;99083.00;5013333;28;20034;-55
2023/03/28 04:32:20;;;;;;;8.40;5.38;;;;;;;21.07;29.68;99077.00;5017860;28;20036;-54
2023/03/28 04:34:49;;;;;;;8.32;5.25;;;;;;;21.50;29.17;99086.53;5032184;28;20029;-56
2023/03/28 04:37:16;;;;;;;5.00;4.50;;;;;;;21.83;28.36;99082.06;5033480;28;20029;-58
2023/03/28 04:39:45;;;;;;;8.75;4.93;;;;;;;21.98;27.81;99083.69;5033270;28;20045;-54
2023/03/28 04:42:12;;;;;;;7.95;5.07;;;;;;;22.37;27.27;99079.03;5029248;28;20073;-60
2023/03/28 04:44:38;;;;;;;9.15;4.90;;;;;;;22.99;25.99;99078.41;5013317;28;20029;-56
2023/03/28 04:47:03;;;;;;;7.38;5.13;;;;;;;23.58;25.28;99077.22;5012971;28;20113;-59
2023/03/28 04:49:29;;;;;;;6.43;5.22;;;;;;;24.24;24.28;99071.97;5013325;28;20034;-58
2023/03/28 04:51:54;;;;;;;9.75;5.72;;;;;;;24.89;23.40;99075.81;5013779;28;20448;-59
2023/03/28 04:54:20;;;;;;;7.63;4.65;;;;;;;25.57;22.26;99083.69;5032832;28;20029;-57
2023/03/28 04:56:49;;;;;;;7.47;4.85;;;;;;;26.01;21.67;99085.09;5026619;28;20175;-55
2023/03/28 04:59:15;;;;;;;8.20;5.13;;;;;;;26.14;21.08;99090.31;5032667;28;20079;-58
2023/03/28 05:01:48;;;;;;;6.45;5.00;;;;;;;26.45;20.76;99085.41;5032588;28;20021;-58
2023/03/28 05:04:16;;;;;;;6.70;4.93;;;;;;;26.74;20.77;99085.38;5032885;28;20021;-58
2023/03/28 05:06:44;;;;;;;6.72;4.20;;;;;;;27.42;20.01;99091.91;5018750;28;20112;-56
2023/03/28 05:09:11;;;;;;;9.40;4.40;;;;;;;27.68;19.61;99081.28;5012701;28;20455;-59
2023/03/28 05:11:37;;;;;;;6.78;4.60;;;;;;;27.52;19.37;99092.09;5013072;28;20095;-56
2023/03/28 05:14:02;;;;;;;5.32;4.35;;;;;;;27.25;19.91;99072.72;5012419;28;20116;-57
2023/03/28 05:16:28;;;;;;;7.72;4.85;;;;;;;27.22;19.95;99093.28;5013115;28;20524;-57
2023/03/28 05:18:55;;;;;;;7.45;5.00;;;;;;;26.86;20.09;99090.81;5012431;28;20033;-58
2023/03/28 05:21:20;;;;;;;6.82;3.92;;;;;;;26.75;19.98;99073.28;5011960;28;20064;-58
2023/03/28 05:23:46;;;;;;;7.20;4.10;;;;;;;26.66;20.09;99102.25;5031965;28;20060;-57
2023/03/28 05:26:11;;;;;;;3.92;3.30;;;;;;;26.17;20.28;99098.09;5021307;28;20365;-58
2023/03/28 05:28:37;;;;;;;5.82;3.88;;;;;;;25.89;20.46;99099.72;5012534;28;20095;-59
2023/03/28 05:31:05;;;;;;;4.28;3.38;;;;;;;26.21;20.17;99101.19;5012441;28;20034;-55
2023/03/28 05:33:31;;;;;;;25.90;4.50;;;;;;;26.83;19.89;99098.69;5012762;28;20034;-56
2023/03/28 05:35:56;;;;;;;7.28;3.70;;;;;;;27.20;18.66;99101.78;5019234;28;20365;-58
2023/03/28 05:38:22;;;;;;;3.25;3.00;;;;;;;26.69;19.50;99090.78;5031913;28;20095;-58
2023/03/28 05:40:48;;;;;;;5.07;2.65;;;;;;;26.47;19.10;99085.19;5032606;28;20365;-59
2023/03/28 05:43:13;;;;;;;5.85;2.85;;;;;;;26.58;18.87;99054.09;5032501;28;20519;-59
2023/03/28 05:45:39;;;;;;;3.00;2.58;;;;;;;26.89;18.89;99103.22;5030482;28;20133;-60
2023/03/28 05:48:04;;;;;;;4.05;2.50;;;;;;;26.39;18.97;99108.38;5030801;28;20039;-61
2023/03/28 05:50:30;;;;;;;4.57;2.75;;;;;;;25.29;19.95;99115.34;5039975;28;20108;-58
2023/03/28 05:52:55;;;;;;;6.03;3.10;;;;;;;24.12;21.80;99114.84;5034978;28;20120;-57
2023/03/28 05:55:21;;;;;;;5.35;3.25;;;;;;;23.41;22.49;99115.22;5026142;28;20044;-59
2023/03/28 05:57:47;;;;;;;3.83;3.10;;;;;;;22.88;22.95;99111.84;5012760;28;20058;-57
2023/03/28 06:00:13;;;;;;;9.73;3.60;;;;;;;22.43;23.68;99116.38;5012737;28;20109;-54
2023/03/28 06:02:39;;;;;;;5.95;3.22;;;;;;;22.04;24.06;99102.72;5012693;28;20041;-62
2023/03/28 06:05:06;;;;;;;5.93;3.08;;;;;;;21.87;24.71;99126.88;5012863;28;20059;-59
2023/03/28 06:07:32;;;;;;;3.85;3.10;;;;;;;21.37;24.97;99133.69;5011963;28;20425;-57
2023/03/28 06:09:57;;;;;;;5.60;3.00;;;;;;;20.89;25.46;99131.22;5013351;28;20030;-60
2023/03/28 06:12:23;;;;;;;7.75;3.88;;;;;;;20.77;25.41;99117.34;5015640;28;20030;-58
2023/03/28 06:14:48;;;;;;;7.80;3.88;;;;;;;21.27;25.45;99119.69;5017233;28;20333;-61
2023/03/28 06:17:14;;;;;;;6.97;3.63;;;;;;;21.80;24.79;99126.09;5035469;28;20469;-61
2023/03/28 06:19:40;;;;;;;6.05;4.32;;;;;;;21.99;24.19;99137.13;5035421;28;20142;-60
2023/03/28 06:22:06;;;;;;;4.82;3.92;;;;;;;21.86;24.22;99125.22;5039932;28;20049;-59
2023/03/28 06:24:31;;;;;;;8.27;4.28;;;;;;;21.71;24.32;99144.56;5030367;28;20444;-56
2023/03/28 06:26:57;;;;;;;7.55;3.90;;;;;;;21.75;24.26;99144.97;5035152;28;20036;-56
2023/03/28 06:29:23;;;;;;;5.90;3.67;;;;;;;22.23;23.43;99144.56;5035366;28;20350;-58
2023/03/28 06:31:48;;;;;;;7.13;3.80;;;;;;;22.72;22.94;99148.72;5035973;28;20091;-57
2023/03/28 06:34:14;;;;;;;6.18;3.72;;;;;;;23.26;22.05;99140.97;5028812;28;20030;-53
2023/03/28 06:36:39;;;;;;;11.10;3.53;;;;;;;24.52;20.73;99144.38;5015710;28;20029;-57
2023/03/28 06:39:05;;;;;;;7.47;3.72;;;;;;;25.90;18.92;99137.03;5015859;28;20415;-57
2023/03/28 06:41:30;;;;;;;8.85;4.00;;;;;;;26.62;18.91;99139.53;4998148;28;20053;-53
2023/03/28 06:43:56;;;;;;;5.03;3.28;;;;;;;26.96;17.90;99145.06;5030882;28;20029;-57
2023/03/28 06:46:21;;;;;;;5.22;3.30;;;;;;;26.84;17.22;99149.78;5015880;28;20556;-59
2023/03/28 06:48:46;;;;;;;8.25;3.88;;;;;;;26.79;18.36;99148.63;5014972;28;20065;-60
2023/03/28 06:51:12;;;;;;;7.60;3.67;;;;;;;27.07;17.59;99133.19;5014475;28;20083;-59
2023/03/28 06:53:37;;;;;;;8.10;4.25;;;;;;;27.61;17.56;99144.72;5015161;28;20057;-59
2023/03/28 06:56:03;;;;;;;9.48;3.60;;;;;;;28.12;16.36;99149.25;5034519;28;20057;-55
2023/03/28 06:58:29;;;;;;;8.20;2.80;;;;;;;28.04;15.99;99140.31;5034838;28;20044;-56
2023/03/28 07:00:58;;;;;;;5.88;2.53;;;;;;;28.06;16.20;99156.59;5035297;28;20032;-59
2023/03/28 07:03:24;;;;;;;8.82;3.95;;;;;;;27.58;16.61;99150.72;5034954;28;20433;-57
2023/03/28 07:05:49;;;;;;;8.75;4.20;;;;;;;26.62;17.05;99132.09;5017039;28;20037;-55
2023/03/28 07:08:14;;;;;;;6.03;3.30;;;;;;;26.06;17.95;99142.84;5014986;28;20113;-56
2023/03/28 07:10:40;;;;;;;6.10;3.75;;;;;;;25.84;18.51;99148.97;5016102;28;20109;-58
2023/03/28 07:13:06;;;;;;;7.93;3.90;;;;;;;26.16;18.35;99159.53;5014949;28;20109;-58
2023/03/28 07:15:32;;;;;;;6.72;2.80;;;;;;;26.60;17.17;99128.78;5029430;28;20060;-57
2023/03/28 07:17:58;;;;;;;7.70;3.00;;;;;;;27.39;16.62;99152.88;5035028;28;20080;-58
2023/03/28 07:20:24;;;;;;;5.70;2.72;;;;;;;28.19;16.05;99161.72;5034802;28;20041;-59
2023/03/28 07:22:50;;;;;;;6.40;2.72;;;;;;;28.36;16.15;99160.81;5034474;28;20022;-54
2023/03/28 07:25:16;;;;;;;5.68;2.80;;;;;;;28.06;16.09;99176.66;5020797;28;20806;-57
2023/03/28 07:27:41;;;;;;;6.88;2.90;;;;;;;27.26;16.84;99165.06;5014970;28;20057;-58
2023/03/28 07:30:07;;;;;;;8.18;3.40;;;;;;;26.49;17.67;99155.19;5014646;28;20353;-57
2023/03/28 07:32:35;;;;;;;7.40;3.38;;;;;;;25.83;18.36;99155.53;5017687;28;20033;-56
2023/03/28 07:35:01;;;;;;;6.53;3.30;;;;;;;24.78;19.21;99167.81;5022767;28;20030;-57
2023/03/28 07:37:26;;;;;;;10.38;3.72;;;;;;;23.34;20.41;99156.25;5013763;28;20125;-62
2023/03/28 07:39:53;;;;;;;6.65;4.10;;;;;;;21.97;22.39;99161.03;5013760;28;20076;-59
2023/03/28 07:42:19;;;;;;;9.00;4.15;;;;;;;20.79;23.91;99183.28;5014027;28;20046;-55
2023/03/28 07:44:44;;;;;;;12.18;4.75;;;;;;;19.86;24.99;99171.84;5018761;28;20037;-68
2023/03/28 07:47:10;;;;;;;12.32;4.75;;;;;;;18.97;26.10;99176.00;5023135;28;20025;-56
2023/03/28 07:49:36;;;;;;;8.55;4.53;;;;;;;17.82;27.97;99166.53;5037581;28;20032;-59
2023/03/28 07:52:02;;;;;;;7.90;5.60;;;;;;;16.78;29.06;99149.09;5036759;28;20040;-55
2023/03/28 07:54:31;;;;;;;9.75;5.25;;;;;;;16.05;30.18;99174.53;5041723;28;20025;-55
2023/03/28 07:56:58;;;;;;;10.52;4.82;;;;;;;15.39;31.19;99185.47;5044001;28;20032;-63
2023/03/28 07:59:25;;;;;;;10.57;5.55;;;;;;;14.90;32.39;99180.94;5033164;28;20042;-56
2023/03/28 08:01:51;;;;;;;9.38;5.28;;;;;;;14.24;33.42;99188.91;5035420;28;20100;-56
2023/03/28 08:04:17;;;;;;;6.85;5.20;;;;;;;14.14;34.08;99176.41;5039740;28;20409;-57
2023/03/28 08:06:42;;;;;;;13.93;6.70;;;;;;;14.11;35.00;99175.91;5035551;28;20056;-58
2023/03/28 08:09:11;;;;;;;10.10;6.80;;;;;;;14.16;34.71;99179.75;5034343;28;20029;-59
2023/03/28 08:11:37;;;;;;;14.25;7.07;;;;;;;13.94;35.25;99154.28;5037088;28;20087;-55
2023/03/28 08:14:05;;;;;;;17.25;6.55;;;;;;;14.15;34.63;99188.84;5040458;28;20475;-60
2023/03/28 08:16:31;;;;;;;13.93;7.00;;;;;;;13.86;35.33;99173.94;5031281;28;20057;-59
2023/03/28 08:18:57;;;;;;;16.60;8.25;;;;;;;13.83;36.30;99193.09;5033031;28;20432;-55
2023/03/28 08:21:24;;;;;;;10.18;7.38;;;;;;;13.83;36.26;99190.41;5033033;28;20057;-52
2023/03/28 08:23:50;;;;;;;15.07;7.75;;;;;;;13.75;36.69;99193.06;5032282;28;20055;-54
2023/03/28 08:26:16;;;;;;;15.20;8.10;;;;;;;13.75;36.89;99206.53;5027292;28;20120;-57
2023/03/28 08:28:41;;;;;;;18.63;8.75;;;;;;;13.66;37.46;99196.69;5030962;28;20033;-57
2023/03/28 08:31:13;;;;;;;13.23;7.93;;;;;;;13.67;36.50;99191.16;5034562;28;20030;-59
2023/03/28 08:33:40;;;;;;;15.13;9.48;;;;;;;13.52;37.20;99199.00;5037324;28;20041;-54
2023/03/28 08:36:07;;;;;;;16.15;9.25;;;;;;;13.38;37.59;99205.72;5042221;28;20296;-54
2023/03/28 08:38:34;;;;;;;16.23;9.88;;;;;;;13.20;37.49;99187.81;5038576;28;20049;-56
2023/03/28 08:41:25;;;;;;;16.77;10.05;;;;;;;13.27;37.96;99190.72;5039109;28;20041;-57
2023/03/28 08:43:58;;;;;;;22.58;11.55;;;;;;;13.31;38.39;99185.84;5033732;28;20128;-55
2023/03/28 08:46:26;;;;;;;16.35;11.35;;;;;;;13.06;39.11;99181.16;5032124;28;20033;-54
2023/03/28 08:48:54;;;;;;;19.25;11.60;;;;;;;13.17;38.57;99180.06;5032163;28;20033;-56
2023/03/28 08:51:30;;;;;;;11.55;7.53;;;;;;;13.32;37.22;99174.97;5025390;28;20044;-57
2023/03/28 08:54:14;;;;;;;12.13;8.25;;;;;;;13.33;37.10;99176.66;5021356;28;20483;-57
2023/03/28 08:56:50;;;;;;;18.00;9.73;;;;;;;13.59;37.17;99174.97;5029375;28;20168;-56
2023/03/28 08:59:20;;;;;;;15.25;8.25;;;;;;;13.76;36.48;99178.63;5012745;28;20061;-55
2023/03/28 09:01:46;;;;;;;22.52;8.80;;;;;;;13.64;36.51;99180.75;5017910;28;20026;-56
2023/03/28 09:04:29;;;;;;;21.75;9.10;;;;;;;13.55;37.10;99182.53;5029321;28;20114;-58
2023/03/28 09:07:35;;;;;;;14.13;8.75;;;;;;;13.79;36.66;99178.28;5017544;28;20725;-61
2023/03/28 09:10:22;;;;;;;11.10;7.95;;;;;;;14.19;35.87;99187.50;5012212;28;20046;-61
2023/03/28 09:13:02;;;;;;;14.85;7.82;;;;;;;14.10;35.50;99180.44;5013322;28;20033;-57
2023/03/28 09:16:01;;;;;;;11.02;7.18;;;;;;;14.09;35.73;99178.75;5013031;28;20037;-57
2023/03/28 09:18:53;;;;;;;12.95;6.40;;;;;;;14.19;35.39;99192.06;5037030;28;20069;-57
2023/03/28 09:21:43;;;;;;;14.63;6.13;;;;;;;14.54;35.06;99182.06;5041851;28;20044;-57
2023/03/28 09:24:11;;;;;;;12.45;6.25;;;;;;;14.57;34.15;99179.03;5039184;28;20036;-59
2023/03/28 09:26:42;;;;;;;12.73;5.50;;;;;;;14.43;33.74;99188.59;5039869;28;20040;-58
2023/03/28 09:29:16;;;;;;;13.43;5.60;;;;;;;14.08;34.29;99168.97;5029411;28;20030;-61
2023/03/28 09:31:53;;;;;;;12.43;5.32;;;;;;;13.83;34.20;99174.25;5042565;28;20358;-54
2023/03/28 09:34:39;;;;;;;11.98;4.97;;;;;;;13.49;34.59;99172.38;5031616;28;20025;-58
2023/03/28 09:37:33;;;;;;;13.38;4.85;;;;;;;13.19;34.91;99183.44;5025228;28;20036;-57
2023/03/28 09:40:15;;;;;;;12.40;4.50;;;;;;;13.04;35.48;99164.34;5014780;28;20076;-60
2023/03/28 09:42:52;;;;;;;12.70;4.97;;;;;;;13.18;34.94;99172.84;5025233;28;20434;-55
2023/03/28 09:45:49;;;;;;;11.93;5.07;;;;;;;13.57;34.56;99180.53;5032068;28;20364;-61
2023/03/28 09:48:21;;;;;;;15.77;6.68;;;;;;;13.45;34.53;99173.72;5026612;28;20473;-59
2023/03/28 09:50:46;;;;;;;12.73;6.63;;;;;;;13.45;34.80;99173.72;5034714;28;20037;-61
2023/03/28 09:53:25;;;;;;;14.25;5.88;;;;;;;13.67;34.67;99176.88;5033411;28;20032;-60
2023/03/28 09:55:53;;;;;;;14.88;5.22;;;;;;;13.54;34.20;99164.72;5032054;28;20731;-62
2023/03/28 09:58:19;;;;;;;11.50;5.25;;;;;;;13.59;34.42;99178.50;5032740;28;20029;-61
2023/03/28 10:00:50;;;;;;;9.73;4.82;;;;;;;13.85;33.42;99182.16;5027414;28;20030;-63
2023/03/28 10:03:31;;;;;;;10.80;4.60;;;;;;;13.98;33.43;99192.47;5019955;28;20179;-59
2023/03/28 10:05:58;;;;;;;12.45;5.70;;;;;;;13.78;33.07;99190.06;5031680;28;20062;-60
2023/03/28 10:08:37;;;;;;;8.23;4.65;;;;;;;13.49;33.94;99158.94;5023015;28;20048;-60
2023/03/28 10:11:11;;;;;;;9.30;5.32;;;;;;;13.63;33.93;99181.75;5035717;28;20068;-57
2023/03/28 10:13:41;;;;;;;11.23;5.13;;;;;;;13.61;33.62;99176.50;5035369;28;20029;-54
2023/03/28 10:16:10;;;;;;;13.00;5.65;;;;;;;13.40;33.97;99178.69;5041671;28;20471;-59
2023/03/28 10:18:38;;;;;;;15.93;5.20;;;;;;;13.20;34.00;99189.66;5042749;28;20451;-56
2023/03/28 10:21:11;;;;;;;10.23;4.55;;;;;;;13.05;34.29;99178.63;5044156;28;20033;-58
2023/03/28 10:23:39;;;;;;;11.00;3.78;;;;;;;13.18;33.75;99187.13;5044552;28;20044;-57
2023/03/28 10:26:06;;;;;;;10.38;4.80;;;;;;;12.95;34.13;99185.94;5039086;28;20109;-59
2023/03/28 10:28:34;;;;;;;9.23;4.30;;;;;;;12.90;34.41;99172.97;5043031;28;20046;-60
2023/03/28 10:31:01;;;;;;;10.45;4.20;;;;;;;12.65;34.26;99145.88;5044010;28;20049;-60
2023/03/28 10:33:36;;;;;;;12.77;4.70;;;;;;;12.91;34.78;99186.25;5044601;28;20038;-57
2023/03/28 10:36:05;;;;;;;11.27;4.05;;;;;;;12.81;34.31;99176.59;5048955;28;20078;-58
2023/03/28 10:38:35;;;;;;;10.93;3.83;;;;;;;12.74;34.78;99169.13;5033114;28;20049;-60
2023/03/28 10:41:18;;;;;;;8.55;4.13;;;;;;;13.02;33.84;99174.41;5014964;28;20045;-60
2023/03/28 10:43:43;;;;;;;9.88;4.20;;;;;;;13.19;33.82;99182.59;5026598;28;20457;-51
2023/03/28 10:46:16;;;;;;;12.18;4.38;;;;;;;13.43;33.47;99178.41;5012171;28;20084;-57
2023/03/28 10:48:49;;;;;;;13.43;4.85;;;;;;;13.57;32.89;99185.91;5034346;28;20124;-59
2023/03/28 10:51:20;;;;;;;13.63;4.60;;;;;;;13.28;33.47;99186.19;5051806;28;20044;-56
2023/03/28 10:54:14;;;;;;;11.32;3.83;;;;;;;13.06;33.76;99183.00;5053203;28;20456;-52
2023/03/28 10:56:52;;;;;;;8.68;4.15;;;;;;;12.62;34.53;99173.06;5046189;28;20072;-57
2023/03/28 10:59:36;;;;;;;11.65;4.20;;;;;;;12.52;34.56;99169.56;5032273;28;20039;-54
2023/03/28 11:02:30;;;;;;;6.00;3.17;;;;;;;12.45;34.71;99186.31;5033985;28;20448;-54
2023/03/28 11:05:11;;;;;;;9.35;3.50;;;;;;;11.97;35.36;99176.66;5026858;28;20037;-54
2023/03/28 11:07:43;;;;;;;11.95;3.80;;;;;;;11.75;35.71;99170.69;5032800;28;20033;-56
2023/03/28 11:10:17;;;;;;;11.63;4.28;;;;;;;11.84;36.03;99193.09;5041078;28;20059;-54
2023/03/28 11:12:50;;;;;;;10.98;4.15;;;;;;;11.84;35.80;99179.69;5043784;28;20049;-54
2023/03/28 11:15:26;;;;;;;9.20;4.22;;;;;;;11.76;36.08;99186.66;5040064;28;20025;-53
2023/03/28 11:17:59;;;;;;;7.25;3.88;;;;;;;11.49;36.22;99184.75;5039449;28;20040;-57
2023/03/28 11:20:30;;;;;;;10.90;4.43;;;;;;;11.40;36.78;99172.25;5042083;28;20029;-56
2023/03/28 11:23:23;;;;;;;11.65;4.85;;;;;;;11.52;36.86;99178.28;5040338;28;20383;-57
2023/03/28 11:25:59;;;;;;;6.35;3.85;;;;;;;11.37;36.38;99175.22;5042904;28;20459;-54
2023/03/28 11:28:27;;;;;;;11.35;4.78;;;;;;;11.24;36.70;99173.69;5037855;28;20037;-54
2023/03/28 11:30:56;;;;;;;9.38;3.63;;;;;;;11.19;36.59;99189.34;5032785;28;20038;-57
2023/03/28 11:33:40;;;;;;;17.10;4.15;;;;;;;11.31;36.95;99166.75;5032882;28;20079;-56
2023/03/28 11:36:13;;;;;;;8.45;3.72;;;;;;;11.40;36.02;99173.06;5028030;28;20334;-56
2023/03/28 11:38:43;;;;;;;10.50;4.07;;;;;;;11.48;35.81;99183.94;4996860;28;1297379;-52
2023/03/28 11:41:11;;;;;;;11.15;3.45;;;;;;;11.31;34.64;99169.44;5035410;28;20361;-55
2023/03/28 11:43:54;;;;;;;13.93;3.60;;;;;;;11.17;35.43;99162.69;5033975;28;20026;-55
2023/03/28 11:46:50;;;;;;;10.48;3.95;;;;;;;11.33;35.98;99166.63;5033976;28;20029;-54